sensor_id;sensor_type;location;lat;lon;timestamp;pressure;altitude;pressure_sealevel;temperature;humidity
18500;BME280;9379;52.134;11.576;2023-07-29T00:00:39;100140.59;;;22.14;97.43
18500;BME280;9379;52.134;11.576;2023-07-29T00:03:06;100138.75;;;22.33;96.91
18500;BME280;9379;52.134;11.576;2023-07-29T00:05:33;100132.78;;;21.99;97.93
18500;BME280;9379;52.134;11.576;2023-07-29T00:08:00;100124.78;;;22.11;98.44
18500;BME280;9379;52.134;11.576;2023-07-29T00:10:27;100128.13;;;22.13;98.78
18500;BME280;9379;52.134;11.576;2023-07-29T00:12:55;100127.53;;;22.04;98.25
18500;BME280;9379;52.134;11.576;2023-07-29T00:15:21;100123.69;;;21.94;98.17
18500;BME280;9379;52.134;11.576;2023-07-29T00:17:48;100120.00;;;22.13;97.99
18500;BME280;9379;52.134;11.576;2023-07-29T00:20:16;100123.81;;;21.99;98.13
18500;BME280;9379;52.134;11.576;2023-07-29T00:22:45;100121.34;;;22.22;96.67
18500;BME280;9379;52.134;11.576;2023-07-29T00:25:15;100120.59;;;21.65;100.00
18500;BME280;9379;52.134;11.576;2023-07-29T00:27:42;100120.09;;;22.00;98.81
18500;BME280;9379;52.134;11.576;2023-07-29T00:30:11;100123.41;;;22.45;96.16
18500;BME280;9379;52.134;11.576;2023-07-29T00:32:38;100114.44;;;21.76;98.54
18500;BME280;9379;52.134;11.576;2023-07-29T00:35:05;100122.75;;;21.81;99.68
18500;BME280;9379;52.134;11.576;2023-07-29T00:37:32;100125.22;;;22.33;96.81
18500;BME280;9379;52.134;11.576;2023-07-29T00:39:59;100116.19;;;22.57;94.85
18500;BME280;9379;52.134;11.576;2023-07-29T00:42:26;100121.34;;;21.97;97.36
18500;BME280;9379;52.134;11.576;2023-07-29T00:44:52;100119.09;;;21.69;99.09
18500;BME280;9379;52.134;11.576;2023-07-29T00:47:22;100111.88;;;22.13;98.11
18500;BME280;9379;52.134;11.576;2023-07-29T00:49:49;100119.22;;;21.81;99.18
18500;BME280;9379;52.134;11.576;2023-07-29T00:52:16;100118.22;;;22.25;97.08
18500;BME280;9379;52.134;11.576;2023-07-29T00:54:43;100109.66;;;22.28;95.68
18500;BME280;9379;52.134;11.576;2023-07-29T00:57:11;100111.72;;;21.76;99.03
18500;BME280;9379;52.134;11.576;2023-07-29T00:59:40;100103.91;;;21.68;99.33
18500;BME280;9379;52.134;11.576;2023-07-29T01:02:08;100110.72;;;21.77;99.24
18500;BME280;9379;52.134;11.576;2023-07-29T01:04:36;100114.41;;;21.83;98.09
18500;BME280;9379;52.134;11.576;2023-07-29T01:07:07;100108.66;;;21.73;99.12
18500;BME280;9379;52.134;11.576;2023-07-29T01:09:46;100103.06;;;21.43;99.70
18500;BME280;9379;52.134;11.576;2023-07-29T01:12:23;100103.78;;;21.57;99.75
18500;BME280;9379;52.134;11.576;2023-07-29T01:14:59;100116.84;;;21.35;100.00
18500;BME280;9379;52.134;11.576;2023-07-29T01:17:32;100116.84;;;21.35;100.00
18500;BME280;9379;52.134;11.576;2023-07-29T01:20:04;100109.00;;;21.51;99.92
18500;BME280;9379;52.134;11.576;2023-07-29T01:22:34;100100.00;;;21.33;100.00
18500;BME280;9379;52.134;11.576;2023-07-29T01:25:04;100116.50;;;21.56;100.00
18500;BME280;9379;52.134;11.576;2023-07-29T01:27:30;100086.72;;;21.31;100.00
18500;BME280;9379;52.134;11.576;2023-07-29T01:29:58;100110.41;;;21.61;99.70
18500;BME280;9379;52.134;11.576;2023-07-29T01:32:28;100101.56;;;21.97;97.36
18500;BME280;9379;52.134;11.576;2023-07-29T01:35:02;100097.16;;;22.27;95.21
18500;BME280;9379;52.134;11.576;2023-07-29T01:37:32;100098.13;;;22.33;93.94
18500;BME280;9379;52.134;11.576;2023-07-29T01:40:00;100101.84;;;22.38;93.67
18500;BME280;9379;52.134;11.576;2023-07-29T01:42:29;100094.00;;;22.30;94.36
18500;BME280;9379;52.134;11.576;2023-07-29T01:45:23;100086.06;;;22.35;93.17
18500;BME280;9379;52.134;11.576;2023-07-29T01:47:51;100096.13;;;22.28;93.55
18500;BME280;9379;52.134;11.576;2023-07-29T01:50:17;100105.78;;;21.36;98.64
18500;BME280;9379;52.134;11.576;2023-07-29T01:52:44;100106.03;;;21.28;98.90
18500;BME280;9379;52.134;11.576;2023-07-29T01:55:11;100101.38;;;21.04;99.78
18500;BME280;9379;52.134;11.576;2023-07-29T01:57:39;100099.81;;;20.83;100.00
18500;BME280;9379;52.134;11.576;2023-07-29T02:00:07;100099.84;;;21.21;100.00
18500;BME280;9379;52.134;11.576;2023-07-29T02:02:34;100101.47;;;21.29;98.82
18500;BME280;9379;52.134;11.576;2023-07-29T02:05:01;100082.69;;;21.02;100.00
18500;BME280;9379;52.134;11.576;2023-07-29T02:07:27;100090.44;;;21.30;100.00
18500;BME280;9379;52.134;11.576;2023-07-29T02:09:54;100104.72;;;21.44;99.44
18500;BME280;9379;52.134;11.576;2023-07-29T02:12:21;100099.00;;;21.59;98.82
18500;BME280;9379;52.134;11.576;2023-07-29T02:14:49;100097.69;;;20.98;100.00
18500;BME280;9379;52.134;11.576;2023-07-29T02:17:16;100104.50;;;21.01;100.00
18500;BME280;9379;52.134;11.576;2023-07-29T02:19:43;100091.91;;;20.81;100.00
18500;BME280;9379;52.134;11.576;2023-07-29T02:22:12;100092.34;;;21.23;100.00
18500;BME280;9379;52.134;11.576;2023-07-29T02:24:39;100091.91;;;21.33;100.00
18500;BME280;9379;52.134;11.576;2023-07-29T02:27:06;100090.44;;;21.30;99.13
18500;BME280;9379;52.134;11.576;2023-07-29T02:29:33;100099.19;;;20.87;100.00
18500;BME280;9379;52.134;11.576;2023-07-29T02:32:01;100093.94;;;20.92;100.00
18500;BME280;9379;52.134;11.576;2023-07-29T02:34:28;100090.09;;;20.75;100.00
18500;BME280;9379;52.134;11.576;2023-07-29T02:36:55;100094.84;;;20.80;100.00
18500;BME280;9379;52.134;11.576;2023-07-29T02:39:22;100090.03;;;20.82;100.00
18500;BME280;9379;52.134;11.576;2023-07-29T02:41:49;100088.81;;;20.78;100.00
18500;BME280;9379;52.134;11.576;2023-07-29T02:44:16;100088.72;;;20.46;100.00
18500;BME280;9379;52.134;11.576;2023-07-29T02:46:45;100077.56;;;20.16;100.00
18500;BME280;9379;52.134;11.576;2023-07-29T02:49:13;100098.25;;;20.62;100.00
18500;BME280;9379;52.134;11.576;2023-07-29T02:51:39;100086.66;;;20.35;100.00
18500;BME280;9379;52.134;11.576;2023-07-29T02:54:06;100092.47;;;20.25;100.00
18500;BME280;9379;52.134;11.576;2023-07-29T02:56:33;100101.41;;;20.26;100.00
18500;BME280;9379;52.134;11.576;2023-07-29T02:59:00;100105.75;;;20.53;100.00
18500;BME280;9379;52.134;11.576;2023-07-29T03:01:27;100107.06;;;20.82;100.00
18500;BME280;9379;52.134;11.576;2023-07-29T03:03:53;100109.09;;;21.00;100.00
18500;BME280;9379;52.134;11.576;2023-07-29T03:06:22;100101.59;;;21.02;100.00
18500;BME280;9379;52.134;11.576;2023-07-29T03:08:49;100102.56;;;20.69;100.00
18500;BME280;9379;52.134;11.576;2023-07-29T03:11:16;100105.31;;;20.63;100.00
18500;BME280;9379;52.134;11.576;2023-07-29T03:13:43;100097.75;;;20.85;100.00
18500;BME280;9379;52.134;11.576;2023-07-29T03:16:11;100097.53;;;20.86;100.00
18500;BME280;9379;52.134;11.576;2023-07-29T03:18:38;100106.69;;;20.72;100.00
18500;BME280;9379;52.134;11.576;2023-07-29T03:21:05;100094.56;;;20.43;100.00
18500;BME280;9379;52.134;11.576;2023-07-29T03:23:34;100105.97;;;20.52;100.00
18500;BME280;9379;52.134;11.576;2023-07-29T03:26:02;100102.63;;;20.36;100.00
18500;BME280;9379;52.134;11.576;2023-07-29T03:28:36;100104.09;;;20.26;100.00
18500;BME280;9379;52.134;11.576;2023-07-29T03:31:02;100098.47;;;20.54;100.00
18500;BME280;9379;52.134;11.576;2023-07-29T03:33:29;100101.63;;;20.31;100.00
18500;BME280;9379;52.134;11.576;2023-07-29T03:35:56;100109.72;;;20.37;100.00
18500;BME280;9379;52.134;11.576;2023-07-29T03:38:23;100108.44;;;20.33;100.00
18500;BME280;9379;52.134;11.576;2023-07-29T03:40:51;100113.69;;;20.02;100.00
18500;BME280;9379;52.134;11.576;2023-07-29T03:43:18;100112.84;;;20.21;100.00
18500;BME280;9379;52.134;11.576;2023-07-29T03:45:45;100105.59;;;19.95;100.00
18500;BME280;9379;52.134;11.576;2023-07-29T03:48:12;100111.00;;;20.08;100.00
18500;BME280;9379;52.134;11.576;2023-07-29T03:50:39;100103.66;;;20.55;100.00
18500;BME280;9379;52.134;11.576;2023-07-29T03:53:08;100102.50;;;20.83;100.00
18500;BME280;9379;52.134;11.576;2023-07-29T03:55:35;100102.66;;;20.43;100.00
18500;BME280;9379;52.134;11.576;2023-07-29T03:58:04;100100.72;;;20.63;100.00
18500;BME280;9379;52.134;11.576;2023-07-29T04:00:30;100102.47;;;20.96;100.00
18500;BME280;9379;52.134;11.576;2023-07-29T04:02:57;100097.53;;;20.80;100.00
18500;BME280;9379;52.134;11.576;2023-07-29T04:05:24;100105.53;;;20.42;100.00
18500;BME280;9379;52.134;11.576;2023-07-29T04:07:51;100116.00;;;20.89;100.00
18500;BME280;9379;52.134;11.576;2023-07-29T04:10:19;100108.22;;;20.55;100.00
18500;BME280;9379;52.134;11.576;2023-07-29T04:12:46;100103.81;;;20.74;100.00
18500;BME280;9379;52.134;11.576;2023-07-29T04:15:14;100106.53;;;20.60;100.00
18500;BME280;9379;52.134;11.576;2023-07-29T04:17:41;100106.69;;;20.72;100.00
18500;BME280;9379;52.134;11.576;2023-07-29T04:20:08;100095.78;;;20.54;100.00
18500;BME280;9379;52.134;11.576;2023-07-29T04:22:35;100103.44;;;20.37;100.00
18500;BME280;9379;52.134;11.576;2023-07-29T04:25:04;100110.72;;;20.56;100.00
18500;BME280;9379;52.134;11.576;2023-07-29T04:27:31;100099.13;;;20.43;100.00
18500;BME280;9379;52.134;11.576;2023-07-29T04:29:58;100112.19;;;20.46;100.00
18500;BME280;9379;52.134;11.576;2023-07-29T04:32:29;100107.19;;;21.07;100.00
18500;BME280;9379;52.134;11.576;2023-07-29T04:34:56;100089.72;;;20.58;100.00
18500;BME280;9379;52.134;11.576;2023-07-29T04:37:23;100100.53;;;20.58;100.00
18500;BME280;9379;52.134;11.576;2023-07-29T04:39:49;100106.91;;;20.71;100.00
18500;BME280;9379;52.134;11.576;2023-07-29T04:42:16;100105.06;;;21.16;100.00
18500;BME280;9379;52.134;11.576;2023-07-29T04:44:43;100091.63;;;21.03;100.00
18500;BME280;9379;52.134;11.576;2023-07-29T04:47:10;100082.88;;;21.07;100.00
18500;BME280;9379;52.134;11.576;2023-07-29T04:49:38;100089.47;;;21.49;100.00
18500;BME280;9379;52.134;11.576;2023-07-29T04:52:05;100088.16;;;21.34;100.00
18500;BME280;9379;52.134;11.576;2023-07-29T04:54:32;100086.78;;;21.74;100.00
18500;BME280;9379;52.134;11.576;2023-07-29T04:56:59;100081.25;;;21.88;100.00
18500;BME280;9379;52.134;11.576;2023-07-29T04:59:26;100075.94;;;21.81;100.00
18500;BME280;9379;52.134;11.576;2023-07-29T05:01:53;100070.28;;;21.82;100.00
18500;BME280;9379;52.134;11.576;2023-07-29T05:04:19;100062.81;;;22.03;100.00
18500;BME280;9379;52.134;11.576;2023-07-29T05:06:48;100056.81;;;21.76;100.00
18500;BME280;9379;52.134;11.576;2023-07-29T05:09:16;100061.16;;;22.02;100.00
18500;BME280;9379;52.134;11.576;2023-07-29T05:11:44;100055.09;;;21.81;100.00
18500;BME280;9379;52.134;11.576;2023-07-29T05:14:11;100055.22;;;21.93;100.00
18500;BME280;9379;52.134;11.576;2023-07-29T05:16:38;100059.56;;;21.94;100.00
18500;BME280;9379;52.134;11.576;2023-07-29T05:19:05;100067.47;;;22.39;100.00
18500;BME280;9379;52.134;11.576;2023-07-29T05:23:59;100060.72;;;22.96;99.21
18500;BME280;9379;52.134;11.576;2023-07-29T05:26:26;100058.63;;;22.98;99.51
18500;BME280;9379;52.134;11.576;2023-07-29T05:28:53;100061.63;;;22.90;100.00
18500;BME280;9379;52.134;11.576;2023-07-29T05:31:20;100059.88;;;22.48;100.00
18500;BME280;9379;52.134;11.576;2023-07-29T05:33:46;100063.78;;;22.52;100.00
18500;BME280;9379;52.134;11.576;2023-07-29T05:36:13;100065.50;;;22.64;100.00
18500;BME280;9379;52.134;11.576;2023-07-29T05:38:40;100058.72;;;22.55;100.00
18500;BME280;9379;52.134;11.576;2023-07-29T05:41:08;100061.44;;;22.37;100.00
18500;BME280;9379;52.134;11.576;2023-07-29T05:43:35;100050.38;;;22.57;100.00
18500;BME280;9379;52.134;11.576;2023-07-29T05:46:02;100059.06;;;22.77;100.00
18500;BME280;9379;52.134;11.576;2023-07-29T05:48:29;100057.59;;;22.81;100.00
18500;BME280;9379;52.134;11.576;2023-07-29T05:50:55;100043.00;;;22.46;100.00
18500;BME280;9379;52.134;11.576;2023-07-29T05:53:22;100055.81;;;22.38;100.00
18500;BME280;9379;52.134;11.576;2023-07-29T05:55:49;100055.41;;;22.71;100.00
18500;BME280;9379;52.134;11.576;2023-07-29T05:58:17;100052.69;;;22.71;100.00
18500;BME280;9379;52.134;11.576;2023-07-29T06:00:44;100066.94;;;22.30;100.00
18500;BME280;9379;52.134;11.576;2023-07-29T06:03:11;100056.91;;;22.67;100.00
18500;BME280;9379;52.134;11.576;2023-07-29T06:05:38;100055.91;;;22.80;100.00
18500;BME280;9379;52.134;11.576;2023-07-29T06:08:05;100049.72;;;23.10;100.00
18500;BME280;9379;52.134;11.576;2023-07-29T06:10:33;100049.31;;;23.48;98.74
18500;BME280;9379;52.134;11.576;2023-07-29T06:13:00;100047.75;;;23.28;100.00
18500;BME280;9379;52.134;11.576;2023-07-29T06:15:28;100046.63;;;23.06;100.00
18500;BME280;9379;52.134;11.576;2023-07-29T06:17:55;100048.94;;;23.33;100.00
18500;BME280;9379;52.134;11.576;2023-07-29T06:20:22;100041.84;;;23.73;97.56
18500;BME280;9379;52.134;11.576;2023-07-29T06:22:48;100037.72;;;23.94;96.98
18500;BME280;9379;52.134;11.576;2023-07-29T06:25:15;100057.88;;;23.63;98.59
18500;BME280;9379;52.134;11.576;2023-07-29T06:27:42;100049.91;;;23.50;99.99
18500;BME280;9379;52.134;11.576;2023-07-29T06:30:09;100050.44;;;23.70;98.80
18500;BME280;9379;52.134;11.576;2023-07-29T06:32:37;100057.50;;;23.60;99.01
18500;BME280;9379;52.134;11.576;2023-07-29T06:35:05;100046.84;;;23.46;99.38
18500;BME280;9379;52.134;11.576;2023-07-29T06:37:32;100053.97;;;23.71;98.40
18500;BME280;9379;52.134;11.576;2023-07-29T06:39:58;100068.66;;;23.40;99.23
18500;BME280;9379;52.134;11.576;2023-07-29T06:42:25;100067.75;;;23.57;98.97
18500;BME280;9379;52.134;11.576;2023-07-29T06:44:52;100061.13;;;23.53;98.27
18500;BME280;9379;52.134;11.576;2023-07-29T06:47:19;100070.44;;;23.46;98.86
18500;BME280;9379;52.134;11.576;2023-07-29T06:49:47;100057.84;;;23.10;98.66
18500;BME280;9379;52.134;11.576;2023-07-29T06:52:14;100050.00;;;23.85;96.33
18500;BME280;9379;52.134;11.576;2023-07-29T06:54:41;100045.41;;;24.32;93.40
18500;BME280;9379;52.134;11.576;2023-07-29T06:57:08;100052.56;;;24.15;95.20
18500;BME280;9379;52.134;11.576;2023-07-29T06:59:34;100055.94;;;23.40;98.07
18500;BME280;9379;52.134;11.576;2023-07-29T07:02:01;100057.66;;;23.35;97.73
18500;BME280;9379;52.134;11.576;2023-07-29T07:04:28;100061.78;;;23.37;97.92
18500;BME280;9379;52.134;11.576;2023-07-29T07:06:56;100072.41;;;23.27;99.60
18500;BME280;9379;52.134;11.576;2023-07-29T07:09:23;100066.88;;;23.04;98.51
18500;BME280;9379;52.134;11.576;2023-07-29T07:11:50;100069.03;;;23.13;100.00
18500;BME280;9379;52.134;11.576;2023-07-29T07:14:16;100068.03;;;22.96;100.00
18500;BME280;9379;52.134;11.576;2023-07-29T07:16:44;100071.66;;;22.90;100.00
18500;BME280;9379;52.134;11.576;2023-07-29T07:19:10;100062.78;;;23.13;100.00
18500;BME280;9379;52.134;11.576;2023-07-29T07:21:37;100050.13;;;22.77;100.00
18500;BME280;9379;52.134;11.576;2023-07-29T07:24:06;100063.28;;;22.91;100.00
18500;BME280;9379;52.134;11.576;2023-07-29T07:26:32;100058.94;;;22.90;100.00
18500;BME280;9379;52.134;11.576;2023-07-29T07:28:59;100057.13;;;22.66;100.00
18500;BME280;9379;52.134;11.576;2023-07-29T07:31:26;100053.31;;;22.55;100.00
18500;BME280;9379;52.134;11.576;2023-07-29T07:33:53;100056.09;;;22.85;100.00
18500;BME280;9379;52.134;11.576;2023-07-29T07:36:19;100058.69;;;22.92;100.00
18500;BME280;9379;52.134;11.576;2023-07-29T07:38:46;100052.44;;;22.91;100.00
18500;BME280;9379;52.134;11.576;2023-07-29T07:41:14;100049.41;;;23.29;100.00
18500;BME280;9379;52.134;11.576;2023-07-29T07:43:41;100057.78;;;22.98;100.00
18500;BME280;9379;52.134;11.576;2023-07-29T07:46:08;100055.78;;;22.75;100.00
18500;BME280;9379;52.134;11.576;2023-07-29T07:48:34;100053.31;;;22.55;100.00
18500;BME280;9379;52.134;11.576;2023-07-29T07:51:09;100049.16;;;22.71;100.00
18500;BME280;9379;52.134;11.576;2023-07-29T07:53:36;100045.41;;;22.54;100.00
18500;BME280;9379;52.134;11.576;2023-07-29T07:56:03;100037.03;;;22.74;100.00
18500;BME280;9379;52.134;11.576;2023-07-29T07:58:31;100036.75;;;22.63;100.00
18500;BME280;9379;52.134;11.576;2023-07-29T08:01:01;100043.31;;;22.56;100.00
18500;BME280;9379;52.134;11.576;2023-07-29T08:03:28;100036.75;;;22.63;100.00
18500;BME280;9379;52.134;11.576;2023-07-29T08:05:55;100038.91;;;22.91;100.00
18500;BME280;9379;52.134;11.576;2023-07-29T08:08:21;100034.38;;;23.15;100.00
18500;BME280;9379;52.134;11.576;2023-07-29T08:10:48;100032.28;;;23.17;100.00
18500;BME280;9379;52.134;11.576;2023-07-29T08:13:15;100034.09;;;22.75;100.00
18500;BME280;9379;52.134;11.576;2023-07-29T08:15:46;100021.84;;;22.73;100.00
18500;BME280;9379;52.134;11.576;2023-07-29T08:18:12;100031.94;;;22.84;100.00
18500;BME280;9379;52.134;11.576;2023-07-29T08:20:39;100027.91;;;23.05;100.00
18500;BME280;9379;52.134;11.576;2023-07-29T08:23:06;100021.81;;;22.91;100.00
18500;BME280;9379;52.134;11.576;2023-07-29T08:25:33;100024.78;;;22.71;100.00
18500;BME280;9379;52.134;11.576;2023-07-29T08:28:01;100022.16;;;22.64;100.00
18500;BME280;9379;52.134;11.576;2023-07-29T08:30:27;100007.72;;;22.52;100.00
18500;BME280;9379;52.134;11.576;2023-07-29T08:32:56;100013.84;;;22.96;100.00
18500;BME280;9379;52.134;11.576;2023-07-29T08:35:22;100020.78;;;23.04;100.00
18500;BME280;9379;52.134;11.576;2023-07-29T08:37:51;100011.38;;;22.94;100.00
18500;BME280;9379;52.134;11.576;2023-07-29T08:40:17;100013.13;;;23.00;100.00
18500;BME280;9379;52.134;11.576;2023-07-29T08:42:47;100007.31;;;22.85;100.00
18500;BME280;9379;52.134;11.576;2023-07-29T08:45:16;100021.84;;;23.03;100.00
18500;BME280;9379;52.134;11.576;2023-07-29T08:47:43;100022.22;;;22.76;100.00
18500;BME280;9379;52.134;11.576;2023-07-29T08:50:13;100005.88;;;22.83;100.00
18500;BME280;9379;52.134;11.576;2023-07-29T08:52:40;100017.47;;;22.71;100.00
18500;BME280;9379;52.134;11.576;2023-07-29T08:55:08;100013.50;;;22.74;100.00
18500;BME280;9379;52.134;11.576;2023-07-29T08:57:35;100017.94;;;23.28;100.00
18500;BME280;9379;52.134;11.576;2023-07-29T09:00:04;100020.13;;;23.08;100.00
18500;BME280;9379;52.134;11.576;2023-07-29T09:02:31;100031.50;;;22.98;100.00
18500;BME280;9379;52.134;11.576;2023-07-29T09:04:58;100041.94;;;22.83;100.00
18500;BME280;9379;52.134;11.576;2023-07-29T09:07:26;100035.22;;;22.67;100.00
18500;BME280;9379;52.134;11.576;2023-07-29T09:09:53;100032.00;;;22.04;100.00
18500;BME280;9379;52.134;11.576;2023-07-29T09:12:20;100022.34;;;22.15;100.00
18500;BME280;9379;52.134;11.576;2023-07-29T09:14:51;100023.41;;;22.13;100.00
18500;BME280;9379;52.134;11.576;2023-07-29T09:17:18;100010.97;;;22.42;100.00
18500;BME280;9379;52.134;11.576;2023-07-29T09:19:47;100011.59;;;22.26;100.00
18500;BME280;9379;52.134;11.576;2023-07-29T09:22:18;100024.66;;;22.29;100.00
18500;BME280;9379;52.134;11.576;2023-07-29T09:24:47;100008.19;;;21.69;100.00
18500;BME280;9379;52.134;11.576;2023-07-29T09:27:23;100021.75;;;22.12;100.00
18500;BME280;9379;52.134;11.576;2023-07-29T09:29:51;100002.38;;;21.91;100.00
18500;BME280;9379;52.134;11.576;2023-07-29T09:32:18;100014.50;;;22.06;100.00
18500;BME280;9379;52.134;11.576;2023-07-29T09:34:46;100007.91;;;21.77;100.00
18500;BME280;9379;52.134;11.576;2023-07-29T09:37:16;100035.16;;;21.76;100.00
18500;BME280;9379;52.134;11.576;2023-07-29T09:39:48;100035.34;;;21.31;100.00
18500;BME280;9379;52.134;11.576;2023-07-29T09:42:19;100043.19;;;21.39;100.00
18500;BME280;9379;52.134;11.576;2023-07-29T09:44:48;100042.78;;;21.36;100.00
18500;BME280;9379;52.134;11.576;2023-07-29T09:47:19;100045.75;;;20.96;100.00
18500;BME280;9379;52.134;11.576;2023-07-29T09:49:46;100041.63;;;21.18;100.00
18500;BME280;9379;52.134;11.576;2023-07-29T09:52:15;100047.63;;;20.95;100.00
18500;BME280;9379;52.134;11.576;2023-07-29T09:54:42;100020.94;;;20.67;100.00
18500;BME280;9379;52.134;11.576;2023-07-29T09:57:13;100019.84;;;21.13;100.00
18500;BME280;9379;52.134;11.576;2023-07-29T09:59:40;100006.47;;;21.75;100.00
18500;BME280;9379;52.134;11.576;2023-07-29T10:02:10;100009.78;;;21.52;100.00
18500;BME280;9379;52.134;11.576;2023-07-29T10:04:41;100008.75;;;21.53;100.00
18500;BME280;9379;52.134;11.576;2023-07-29T10:07:09;100010.16;;;21.80;100.00
18500;BME280;9379;52.134;11.576;2023-07-29T10:09:37;100013.56;;;21.94;100.00
18500;BME280;9379;52.134;11.576;2023-07-29T10:12:06;100016.41;;;22.06;100.00
18500;BME280;9379;52.134;11.576;2023-07-29T10:14:35;100005.81;;;21.79;100.00
18500;BME280;9379;52.134;11.576;2023-07-29T10:17:02;100020.91;;;21.69;100.00
18500;BME280;9379;52.134;11.576;2023-07-29T10:19:30;100015.00;;;21.53;100.00
18500;BME280;9379;52.134;11.576;2023-07-29T10:21:59;100009.72;;;21.65;100.00
18500;BME280;9379;52.134;11.576;2023-07-29T10:24:30;100006.31;;;21.70;100.00
18500;BME280;9379;52.134;11.576;2023-07-29T10:27:00;100018.84;;;21.64;100.00
18500;BME280;9379;52.134;11.576;2023-07-29T10:29:30;100011.28;;;22.34;100.00
18500;BME280;9379;52.134;11.576;2023-07-29T10:32:01;100012.34;;;22.15;100.00
18500;BME280;9379;52.134;11.576;2023-07-29T10:34:32;99996.38;;;22.43;100.00
18500;BME280;9379;52.134;11.576;2023-07-29T10:36:59;100001.91;;;22.67;100.00
18500;BME280;9379;52.134;11.576;2023-07-29T10:39:27;99979.91;;;22.45;100.00
18500;BME280;9379;52.134;11.576;2023-07-29T10:42:00;99991.28;;;22.84;100.00
18500;BME280;9379;52.134;11.576;2023-07-29T10:47:16;99997.25;;;22.56;100.00
18500;BME280;9379;52.134;11.576;2023-07-29T10:49:44;99998.13;;;22.86;100.00
18500;BME280;9379;52.134;11.576;2023-07-29T10:52:13;99998.53;;;22.71;100.00
18500;BME280;9379;52.134;11.576;2023-07-29T10:54:43;99991.44;;;23.00;100.00
18500;BME280;9379;52.134;11.576;2023-07-29T10:57:13;99985.25;;;23.12;100.00
18500;BME280;9379;52.134;11.576;2023-07-29T10:59:43;99979.50;;;23.20;100.00
18500;BME280;9379;52.134;11.576;2023-07-29T11:02:20;99984.94;;;23.55;100.00
18500;BME280;9379;52.134;11.576;2023-07-29T11:04:49;99974.38;;;23.77;100.00
18500;BME280;9379;52.134;11.576;2023-07-29T11:07:21;99977.41;;;24.04;100.00
18500;BME280;9379;52.134;11.576;2023-07-29T11:10:01;99972.75;;;24.16;100.00
18500;BME280;9379;52.134;11.576;2023-07-29T11:12:34;99978.50;;;23.68;100.00
18500;BME280;9379;52.134;11.576;2023-07-29T11:15:00;99974.94;;;23.55;100.00
18500;BME280;9379;52.134;11.576;2023-07-29T11:17:32;99988.19;;;23.64;100.00
18500;BME280;9379;52.134;11.576;2023-07-29T11:20:00;99975.97;;;23.31;100.00
18500;BME280;9379;52.134;11.576;2023-07-29T11:22:28;99977.97;;;23.36;100.00
18500;BME280;9379;52.134;11.576;2023-07-29T11:24:55;99968.44;;;23.56;100.00
18500;BME280;9379;52.134;11.576;2023-07-29T11:27:22;99952.03;;;23.98;100.00
18500;BME280;9379;52.134;11.576;2023-07-29T11:29:48;99967.16;;;23.71;100.00
18500;BME280;9379;52.134;11.576;2023-07-29T11:32:15;99960.31;;;23.68;100.00
18500;BME280;9379;52.134;11.576;2023-07-29T11:34:44;99958.78;;;23.84;100.00
18500;BME280;9379;52.134;11.576;2023-07-29T11:37:11;99972.59;;;23.71;100.00
18500;BME280;9379;52.134;11.576;2023-07-29T11:39:39;99964.56;;;23.52;100.00
18500;BME280;9379;52.134;11.576;2023-07-29T11:42:07;99969.47;;;23.32;100.00
18500;BME280;9379;52.134;11.576;2023-07-29T11:44:37;99980.63;;;23.77;100.00
18500;BME280;9379;52.134;11.576;2023-07-29T11:47:06;99976.56;;;23.56;100.00
18500;BME280;9379;52.134;11.576;2023-07-29T11:49:33;99971.63;;;23.53;100.00
18500;BME280;9379;52.134;11.576;2023-07-29T11:52:02;99971.94;;;23.22;100.00
18500;BME280;9379;52.134;11.576;2023-07-29T11:54:30;99974.56;;;23.28;100.00
18500;BME280;9379;52.134;11.576;2023-07-29T11:56:57;99968.28;;;23.05;100.00
18500;BME280;9379;52.134;11.576;2023-07-29T11:59:24;99976.50;;;22.98;100.00
18500;BME280;9379;52.134;11.576;2023-07-29T12:01:51;99970.66;;;23.36;100.00
18500;BME280;9379;52.134;11.576;2023-07-29T12:04:19;99961.34;;;23.32;100.00
18500;BME280;9379;52.134;11.576;2023-07-29T12:06:46;99957.44;;;23.05;100.00
18500;BME280;9379;52.134;11.576;2023-07-29T12:09:15;99936.63;;;23.75;100.00
18500;BME280;9379;52.134;11.576;2023-07-29T12:11:42;99946.34;;;24.11;100.00
18500;BME280;9379;52.134;11.576;2023-07-29T12:14:08;99948.88;;;24.70;100.00
18500;BME280;9379;52.134;11.576;2023-07-29T12:16:40;99937.75;;;25.17;100.00
18500;BME280;9379;52.134;11.576;2023-07-29T12:19:07;99950.19;;;24.67;100.00
18500;BME280;9379;52.134;11.576;2023-07-29T12:21:35;99939.50;;;24.78;100.00
18500;BME280;9379;52.134;11.576;2023-07-29T12:24:02;99937.88;;;25.77;99.25
18500;BME280;9379;52.134;11.576;2023-07-29T12:26:33;99927.91;;;24.82;100.00
18500;BME280;9379;52.134;11.576;2023-07-29T12:29:11;99929.88;;;25.54;100.00
18500;BME280;9379;52.134;11.576;2023-07-29T12:31:38;99927.91;;;26.05;99.06
18500;BME280;9379;52.134;11.576;2023-07-29T12:34:05;99904.50;;;25.48;100.00
18500;BME280;9379;52.134;11.576;2023-07-29T12:36:42;99922.31;;;26.38;98.19
18500;BME280;9379;52.134;11.576;2023-07-29T12:39:16;99921.50;;;25.39;100.00
18500;BME280;9379;52.134;11.576;2023-07-29T12:41:44;99939.66;;;25.16;100.00
18500;BME280;9379;52.134;11.576;2023-07-29T12:44:11;99931.50;;;25.16;100.00
18500;BME280;9379;52.134;11.576;2023-07-29T12:46:38;99930.00;;;25.25;100.00
18500;BME280;9379;52.134;11.576;2023-07-29T12:49:05;99929.50;;;25.12;100.00
18500;BME280;9379;52.134;11.576;2023-07-29T12:51:31;99930.50;;;25.22;100.00